sensor_id;sensor_type;location;lat;lon;timestamp;temperature;humidity
26583;DHT22;14230;45.382;10.998;2022-12-18T00:01:35;5.20;99.90
26583;DHT22;14230;45.382;10.998;2022-12-18T00:04:11;5.20;99.90
26583;DHT22;14230;45.382;10.998;2022-12-18T00:06:42;5.00;99.90
26583;DHT22;14230;45.382;10.998;2022-12-18T00:09:10;5.10;99.90
26583;DHT22;14230;45.382;10.998;2022-12-18T00:11:38;5.00;99.90
26583;DHT22;14230;45.382;10.998;2022-12-18T00:14:05;5.10;99.90
26583;DHT22;14230;45.382;10.998;2022-12-18T00:16:33;5.10;99.90
26583;DHT22;14230;45.382;10.998;2022-12-18T00:19:03;5.00;99.90
26583;DHT22;14230;45.382;10.998;2022-12-18T00:21:31;5.10;99.90
26583;DHT22;14230;45.382;10.998;2022-12-18T00:24:00;5.10;99.90
26583;DHT22;14230;45.382;10.998;2022-12-18T00:26:32;5.10;99.90
26583;DHT22;14230;45.382;10.998;2022-12-18T00:29:04;5.00;99.90
26583;DHT22;14230;45.382;10.998;2022-12-18T00:31:32;5.00;99.90
26583;DHT22;14230;45.382;10.998;2022-12-18T00:34:01;5.00;99.90
26583;DHT22;14230;45.382;10.998;2022-12-18T00:36:31;5.00;99.90
26583;DHT22;14230;45.382;10.998;2022-12-18T00:39:00;5.00;99.90
26583;DHT22;14230;45.382;10.998;2022-12-18T00:41:28;5.00;99.90
26583;DHT22;14230;45.382;10.998;2022-12-18T00:44:16;5.00;99.90
26583;DHT22;14230;45.382;10.998;2022-12-18T00:46:45;5.00;99.90
26583;DHT22;14230;45.382;10.998;2022-12-18T00:49:14;5.00;99.90
26583;DHT22;14230;45.382;10.998;2022-12-18T00:51:42;5.00;99.90
26583;DHT22;14230;45.382;10.998;2022-12-18T00:54:11;5.00;99.90
26583;DHT22;14230;45.382;10.998;2022-12-18T00:56:39;5.10;99.90
26583;DHT22;14230;45.382;10.998;2022-12-18T00:59:16;5.10;99.90
26583;DHT22;14230;45.382;10.998;2022-12-18T01:01:43;5.20;99.90
26583;DHT22;14230;45.382;10.998;2022-12-18T01:04:12;5.20;99.90
26583;DHT22;14230;45.382;10.998;2022-12-18T01:06:40;5.10;99.90
26583;DHT22;14230;45.382;10.998;2022-12-18T01:09:07;5.10;99.90
26583;DHT22;14230;45.382;10.998;2022-12-18T01:11:36;5.10;99.90
26583;DHT22;14230;45.382;10.998;2022-12-18T01:14:04;5.10;99.90
26583;DHT22;14230;45.382;10.998;2022-12-18T01:16:31;5.10;99.90
26583;DHT22;14230;45.382;10.998;2022-12-18T01:18:59;5.10;99.90
26583;DHT22;14230;45.382;10.998;2022-12-18T01:21:27;5.20;99.90
26583;DHT22;14230;45.382;10.998;2022-12-18T01:23:56;5.20;99.90
26583;DHT22;14230;45.382;10.998;2022-12-18T01:26:24;5.20;99.90
26583;DHT22;14230;45.382;10.998;2022-12-18T01:28:54;5.20;99.90
26583;DHT22;14230;45.382;10.998;2022-12-18T01:31:28;5.30;99.90
26583;DHT22;14230;45.382;10.998;2022-12-18T01:33:56;5.30;99.90
26583;DHT22;14230;45.382;10.998;2022-12-18T01:36:26;5.30;99.90
26583;DHT22;14230;45.382;10.998;2022-12-18T01:38:55;5.30;99.90
26583;DHT22;14230;45.382;10.998;2022-12-18T01:41:27;5.30;99.90
26583;DHT22;14230;45.382;10.998;2022-12-18T01:47:27;5.30;99.90
26583;DHT22;14230;45.382;10.998;2022-12-18T01:49:57;5.40;99.90
26583;DHT22;14230;45.382;10.998;2022-12-18T01:52:28;5.30;99.90
26583;DHT22;14230;45.382;10.998;2022-12-18T01:54:56;5.30;99.90
26583;DHT22;14230;45.382;10.998;2022-12-18T01:57:26;5.30;99.90
26583;DHT22;14230;45.382;10.998;2022-12-18T01:59:57;5.40;99.90
26583;DHT22;14230;45.382;10.998;2022-12-18T02:02:28;5.40;99.90
26583;DHT22;14230;45.382;10.998;2022-12-18T02:04:59;5.50;99.90
26583;DHT22;14230;45.382;10.998;2022-12-18T02:10:29;5.60;99.90
26583;DHT22;14230;45.382;10.998;2022-12-18T02:18:31;5.70;99.90
26583;DHT22;14230;45.382;10.998;2022-12-18T02:29:12;5.90;99.90
26583;DHT22;14230;45.382;10.998;2022-12-18T02:31:56;5.90;99.90
26583;DHT22;14230;45.382;10.998;2022-12-18T02:34:24;5.90;99.90
26583;DHT22;14230;45.382;10.998;2022-12-18T02:36:54;5.90;99.90
26583;DHT22;14230;45.382;10.998;2022-12-18T02:39:24;5.90;99.90
26583;DHT22;14230;45.382;10.998;2022-12-18T02:42:03;5.90;99.90
26583;DHT22;14230;45.382;10.998;2022-12-18T02:44:46;5.90;99.90
26583;DHT22;14230;45.382;10.998;2022-12-18T02:47:22;5.80;99.90
26583;DHT22;14230;45.382;10.998;2022-12-18T02:55:17;5.80;99.90
26583;DHT22;14230;45.382;10.998;2022-12-18T02:57:57;5.80;99.90
26583;DHT22;14230;45.382;10.998;2022-12-18T03:03:25;5.70;99.90
26583;DHT22;14230;45.382;10.998;2022-12-18T03:06:03;5.60;99.90
26583;DHT22;14230;45.382;10.998;2022-12-18T03:08:38;5.60;99.90
26583;DHT22;14230;45.382;10.998;2022-12-18T03:11:09;5.60;99.90
26583;DHT22;14230;45.382;10.998;2022-12-18T03:13:43;5.60;99.90
26583;DHT22;14230;45.382;10.998;2022-12-18T03:16:22;5.50;99.90
26583;DHT22;14230;45.382;10.998;2022-12-18T03:19:00;5.50;99.90
26583;DHT22;14230;45.382;10.998;2022-12-18T03:21:37;5.50;99.90
26583;DHT22;14230;45.382;10.998;2022-12-18T03:24:08;5.50;99.90
26583;DHT22;14230;45.382;10.998;2022-12-18T03:26:42;5.50;99.90
26583;DHT22;14230;45.382;10.998;2022-12-18T03:29:28;5.40;99.90
26583;DHT22;14230;45.382;10.998;2022-12-18T03:32:03;5.50;99.90
26583;DHT22;14230;45.382;10.998;2022-12-18T03:34:38;5.50;99.90
26583;DHT22;14230;45.382;10.998;2022-12-18T03:37:07;5.50;99.90
26583;DHT22;14230;45.382;10.998;2022-12-18T03:39:36;5.40;99.90
26583;DHT22;14230;45.382;10.998;2022-12-18T03:42:15;5.40;99.90
26583;DHT22;14230;45.382;10.998;2022-12-18T03:45:32;5.50;99.90
26583;DHT22;14230;45.382;10.998;2022-12-18T03:48:19;5.50;99.90
26583;DHT22;14230;45.382;10.998;2022-12-18T03:51:02;5.60;99.90
26583;DHT22;14230;45.382;10.998;2022-12-18T03:53:53;5.60;99.90
26583;DHT22;14230;45.382;10.998;2022-12-18T03:56:31;5.60;99.90
26583;DHT22;14230;45.382;10.998;2022-12-18T03:59:00;5.60;99.90
26583;DHT22;14230;45.382;10.998;2022-12-18T04:01:37;5.60;99.90
26583;DHT22;14230;45.382;10.998;2022-12-18T04:04:07;5.70;99.90
26583;DHT22;14230;45.382;10.998;2022-12-18T04:06:37;5.70;99.90
26583;DHT22;14230;45.382;10.998;2022-12-18T04:09:07;5.70;99.90
26583;DHT22;14230;45.382;10.998;2022-12-18T04:11:40;5.70;99.90
26583;DHT22;14230;45.382;10.998;2022-12-18T04:14:08;5.70;99.90
26583;DHT22;14230;45.382;10.998;2022-12-18T04:16:42;5.70;99.90
26583;DHT22;14230;45.382;10.998;2022-12-18T04:19:13;5.70;99.90
26583;DHT22;14230;45.382;10.998;2022-12-18T04:21:42;5.70;99.90
26583;DHT22;14230;45.382;10.998;2022-12-18T04:24:11;5.60;99.90
26583;DHT22;14230;45.382;10.998;2022-12-18T04:26:44;5.60;99.90
26583;DHT22;14230;45.382;10.998;2022-12-18T04:29:23;5.60;99.90
26583;DHT22;14230;45.382;10.998;2022-12-18T04:31:50;5.50;99.90
26583;DHT22;14230;45.382;10.998;2022-12-18T04:34:18;5.50;99.90
26583;DHT22;14230;45.382;10.998;2022-12-18T04:36:50;5.40;99.90
26583;DHT22;14230;45.382;10.998;2022-12-18T04:39:17;5.50;99.90
26583;DHT22;14230;45.382;10.998;2022-12-18T04:41:47;5.50;99.90
26583;DHT22;14230;45.382;10.998;2022-12-18T04:44:14;5.50;99.90
26583;DHT22;14230;45.382;10.998;2022-12-18T04:46:42;5.60;99.90
26583;DHT22;14230;45.382;10.998;2022-12-18T04:49:10;5.60;99.90
26583;DHT22;14230;45.382;10.998;2022-12-18T04:51:38;5.60;99.90
26583;DHT22;14230;45.382;10.998;2022-12-18T04:54:05;5.60;99.90
26583;DHT22;14230;45.382;10.998;2022-12-18T04:56:33;5.50;99.90
26583;DHT22;14230;45.382;10.998;2022-12-18T04:59:00;5.60;99.90
26583;DHT22;14230;45.382;10.998;2022-12-18T05:01:27;5.60;99.90
26583;DHT22;14230;45.382;10.998;2022-12-18T05:04:01;5.60;99.90
26583;DHT22;14230;45.382;10.998;2022-12-18T05:06:29;5.60;99.90
26583;DHT22;14230;45.382;10.998;2022-12-18T05:08:57;5.50;99.90
26583;DHT22;14230;45.382;10.998;2022-12-18T05:11:24;5.60;99.90
26583;DHT22;14230;45.382;10.998;2022-12-18T05:13:51;5.60;99.90
26583;DHT22;14230;45.382;10.998;2022-12-18T05:16:19;5.50;99.90
26583;DHT22;14230;45.382;10.998;2022-12-18T05:18:46;5.60;99.90
26583;DHT22;14230;45.382;10.998;2022-12-18T05:21:14;5.60;99.90
26583;DHT22;14230;45.382;10.998;2022-12-18T05:23:41;5.60;99.90
26583;DHT22;14230;45.382;10.998;2022-12-18T05:26:14;5.60;99.90
26583;DHT22;14230;45.382;10.998;2022-12-18T05:28:42;5.60;99.90
26583;DHT22;14230;45.382;10.998;2022-12-18T05:31:10;5.60;99.90
26583;DHT22;14230;45.382;10.998;2022-12-18T05:33:38;5.50;99.90
26583;DHT22;14230;45.382;10.998;2022-12-18T05:36:07;5.50;99.90
26583;DHT22;14230;45.382;10.998;2022-12-18T05:38:37;5.40;99.90
26583;DHT22;14230;45.382;10.998;2022-12-18T05:41:06;5.30;99.90
26583;DHT22;14230;45.382;10.998;2022-12-18T05:43:35;5.30;99.90
26583;DHT22;14230;45.382;10.998;2022-12-18T05:46:06;5.30;99.90
26583;DHT22;14230;45.382;10.998;2022-12-18T05:48:34;5.20;99.90
26583;DHT22;14230;45.382;10.998;2022-12-18T05:51:07;5.20;99.90
26583;DHT22;14230;45.382;10.998;2022-12-18T05:53:35;5.10;99.90
26583;DHT22;14230;45.382;10.998;2022-12-18T05:56:06;5.20;99.90
26583;DHT22;14230;45.382;10.998;2022-12-18T05:58:34;5.20;99.90
26583;DHT22;14230;45.382;10.998;2022-12-18T06:01:13;5.30;99.90
26583;DHT22;14230;45.382;10.998;2022-12-18T06:03:41;5.30;99.90
26583;DHT22;14230;45.382;10.998;2022-12-18T06:06:18;5.40;99.90
26583;DHT22;14230;45.382;10.998;2022-12-18T06:08:47;5.40;99.90
26583;DHT22;14230;45.382;10.998;2022-12-18T06:11:18;5.30;99.90
26583;DHT22;14230;45.382;10.998;2022-12-18T06:13:46;5.30;99.90
26583;DHT22;14230;45.382;10.998;2022-12-18T06:16:13;5.30;99.90
26583;DHT22;14230;45.382;10.998;2022-12-18T06:18:41;5.30;99.90
26583;DHT22;14230;45.382;10.998;2022-12-18T06:21:08;5.30;99.90
26583;DHT22;14230;45.382;10.998;2022-12-18T06:23:36;5.30;99.90
26583;DHT22;14230;45.382;10.998;2022-12-18T06:26:08;5.40;99.90
26583;DHT22;14230;45.382;10.998;2022-12-18T06:28:36;5.40;99.90
26583;DHT22;14230;45.382;10.998;2022-12-18T06:31:04;5.40;99.90
26583;DHT22;14230;45.382;10.998;2022-12-18T06:33:32;5.30;99.90
26583;DHT22;14230;45.382;10.998;2022-12-18T06:36:02;5.30;99.90
26583;DHT22;14230;45.382;10.998;2022-12-18T06:38:31;5.30;99.90
26583;DHT22;14230;45.382;10.998;2022-12-18T06:40:58;5.30;99.90
26583;DHT22;14230;45.382;10.998;2022-12-18T06:43:26;5.30;99.90
26583;DHT22;14230;45.382;10.998;2022-12-18T06:46:04;5.30;99.90
26583;DHT22;14230;45.382;10.998;2022-12-18T06:48:32;5.40;99.90
26583;DHT22;14230;45.382;10.998;2022-12-18T06:51:00;5.40;99.90
26583;DHT22;14230;45.382;10.998;2022-12-18T06:53:28;5.40;99.90
26583;DHT22;14230;45.382;10.998;2022-12-18T06:56:06;5.40;99.90
26583;DHT22;14230;45.382;10.998;2022-12-18T06:58:37;5.40;99.90
26583;DHT22;14230;45.382;10.998;2022-12-18T07:01:07;5.40;99.90
26583;DHT22;14230;45.382;10.998;2022-12-18T07:03:37;5.40;99.90
26583;DHT22;14230;45.382;10.998;2022-12-18T07:06:05;5.40;99.90
26583;DHT22;14230;45.382;10.998;2022-12-18T07:08:33;5.40;99.90
26583;DHT22;14230;45.382;10.998;2022-12-18T07:11:03;5.40;99.90
26583;DHT22;14230;45.382;10.998;2022-12-18T07:13:31;5.40;99.90
26583;DHT22;14230;45.382;10.998;2022-12-18T07:16:10;5.40;99.90
26583;DHT22;14230;45.382;10.998;2022-12-18T07:18:48;5.50;99.90
26583;DHT22;14230;45.382;10.998;2022-12-18T07:21:18;5.50;99.90
26583;DHT22;14230;45.382;10.998;2022-12-18T07:23:46;5.50;99.90
26583;DHT22;14230;45.382;10.998;2022-12-18T07:26:17;5.60;99.90
26583;DHT22;14230;45.382;10.998;2022-12-18T07:28:44;5.60;99.90
26583;DHT22;14230;45.382;10.998;2022-12-18T07:31:17;5.60;99.90
26583;DHT22;14230;45.382;10.998;2022-12-18T07:33:45;5.60;99.90
26583;DHT22;14230;45.382;10.998;2022-12-18T07:36:13;5.70;99.90
26583;DHT22;14230;45.382;10.998;2022-12-18T07:38:41;5.70;99.90
26583;DHT22;14230;45.382;10.998;2022-12-18T07:41:12;5.70;99.90
26583;DHT22;14230;45.382;10.998;2022-12-18T07:43:41;5.70;99.90
26583;DHT22;14230;45.382;10.998;2022-12-18T07:46:10;5.80;99.90
26583;DHT22;14230;45.382;10.998;2022-12-18T07:48:40;5.90;99.90
26583;DHT22;14230;45.382;10.998;2022-12-18T07:51:08;5.90;99.90
26583;DHT22;14230;45.382;10.998;2022-12-18T07:53:37;6.00;99.90
26583;DHT22;14230;45.382;10.998;2022-12-18T07:56:08;6.00;99.90
26583;DHT22;14230;45.382;10.998;2022-12-18T07:58:56;6.00;99.90
26583;DHT22;14230;45.382;10.998;2022-12-18T08:01:23;6.10;99.90
26583;DHT22;14230;45.382;10.998;2022-12-18T08:03:51;6.10;99.90
26583;DHT22;14230;45.382;10.998;2022-12-18T08:06:19;6.10;99.90
26583;DHT22;14230;45.382;10.998;2022-12-18T08:08:52;6.20;99.90
26583;DHT22;14230;45.382;10.998;2022-12-18T08:11:19;6.30;99.90
26583;DHT22;14230;45.382;10.998;2022-12-18T08:13:47;6.40;99.90
26583;DHT22;14230;45.382;10.998;2022-12-18T08:16:15;6.30;99.90
26583;DHT22;14230;45.382;10.998;2022-12-18T08:18:43;6.40;99.90
26583;DHT22;14230;45.382;10.998;2022-12-18T08:21:24;6.40;99.90
26583;DHT22;14230;45.382;10.998;2022-12-18T08:23:55;6.40;99.90
26583;DHT22;14230;45.382;10.998;2022-12-18T08:26:24;6.50;99.90
26583;DHT22;14230;45.382;10.998;2022-12-18T08:28:56;6.50;99.90
26583;DHT22;14230;45.382;10.998;2022-12-18T08:31:24;6.50;99.90
26583;DHT22;14230;45.382;10.998;2022-12-18T08:33:53;6.60;99.90
26583;DHT22;14230;45.382;10.998;2022-12-18T08:36:22;6.70;99.90
26583;DHT22;14230;45.382;10.998;2022-12-18T08:38:51;6.80;99.90
26583;DHT22;14230;45.382;10.998;2022-12-18T08:41:19;6.90;99.90
26583;DHT22;14230;45.382;10.998;2022-12-18T08:43:46;6.90;99.90
26583;DHT22;14230;45.382;10.998;2022-12-18T08:46:39;7.00;99.90
26583;DHT22;14230;45.382;10.998;2022-12-18T08:49:08;7.10;99.90
26583;DHT22;14230;45.382;10.998;2022-12-18T08:51:36;7.10;99.90
26583;DHT22;14230;45.382;10.998;2022-12-18T08:59:09;7.30;99.90
26583;DHT22;14230;45.382;10.998;2022-12-18T09:45:04;8.90;99.90
26583;DHT22;14230;45.382;10.998;2022-12-18T10:29:33;10.40;99.90
26583;DHT22;14230;45.382;10.998;2022-12-18T10:41:51;10.10;99.90
26583;DHT22;14230;45.382;10.998;2022-12-18T10:46:00;10.10;99.90
26583;DHT22;14230;45.382;10.998;2022-12-18T11:01:26;10.00;99.90
26583;DHT22;14230;45.382;10.998;2022-12-18T11:05:34;9.90;99.90
26583;DHT22;14230;45.382;10.998;2022-12-18T11:09:42;9.90;99.90
26583;DHT22;14230;45.382;10.998;2022-12-18T11:24:37;10.60;99.90
26583;DHT22;14230;45.382;10.998;2022-12-18T12:04:12;9.80;99.90
26583;DHT22;14230;45.382;10.998;2022-12-18T12:49:32;9.70;99.90
26583;DHT22;14230;45.382;10.998;2022-12-18T12:52:34;9.70;99.90
26583;DHT22;14230;45.382;10.998;2022-12-18T12:55:26;9.70;99.90
26583;DHT22;14230;45.382;10.998;2022-12-18T14:28:14;9.30;99.90
26583;DHT22;14230;45.382;10.998;2022-12-18T14:30:50;9.20;99.90
26583;DHT22;14230;45.382;10.998;2022-12-18T14:34:14;9.20;99.90
26583;DHT22;14230;45.382;10.998;2022-12-18T14:38:36;9.10;99.90
26583;DHT22;14230;45.382;10.998;2022-12-18T14:41:11;9.00;99.90
26583;DHT22;14230;45.382;10.998;2022-12-18T14:43:42;8.90;99.90
26583;DHT22;14230;45.382;10.998;2022-12-18T14:51:52;8.70;99.90
26583;DHT22;14230;45.382;10.998;2022-12-18T14:54:21;8.70;99.90
26583;DHT22;14230;45.382;10.998;2022-12-18T14:57:24;8.60;99.90
26583;DHT22;14230;45.382;10.998;2022-12-18T14:59:52;8.50;99.90
26583;DHT22;14230;45.382;10.998;2022-12-18T15:02:27;8.40;99.90
26583;DHT22;14230;45.382;10.998;2022-12-18T15:05:02;8.30;99.90
26583;DHT22;14230;45.382;10.998;2022-12-18T15:07:50;8.10;99.90
26583;DHT22;14230;45.382;10.998;2022-12-18T15:10:25;8.00;99.90
26583;DHT22;14230;45.382;10.998;2022-12-18T15:18:13;7.70;99.90
26583;DHT22;14230;45.382;10.998;2022-12-18T15:21:09;7.60;99.90
26583;DHT22;14230;45.382;10.998;2022-12-18T15:23:51;7.50;99.90
26583;DHT22;14230;45.382;10.998;2022-12-18T15:26:21;7.40;99.90
26583;DHT22;14230;45.382;10.998;2022-12-18T15:28:54;7.40;99.90
26583;DHT22;14230;45.382;10.998;2022-12-18T15:31:29;7.30;99.90
26583;DHT22;14230;45.382;10.998;2022-12-18T15:36:29;7.20;99.90
26583;DHT22;14230;45.382;10.998;2022-12-18T15:38:58;7.20;99.90
26583;DHT22;14230;45.382;10.998;2022-12-18T15:41:36;7.10;99.90
26583;DHT22;14230;45.382;10.998;2022-12-18T15:44:22;7.00;99.90
26583;DHT22;14230;45.382;10.998;2022-12-18T15:46:50;7.00;99.90
26583;DHT22;14230;45.382;10.998;2022-12-18T15:49:18;7.10;99.90
26583;DHT22;14230;45.382;10.998;2022-12-18T15:51:51;7.00;99.90
26583;DHT22;14230;45.382;10.998;2022-12-18T15:54:19;6.90;99.90
26583;DHT22;14230;45.382;10.998;2022-12-18T15:57:10;6.90;99.90
26583;DHT22;14230;45.382;10.998;2022-12-18T15:59:55;6.80;99.90
26583;DHT22;14230;45.382;10.998;2022-12-18T16:02:27;6.60;99.90
26583;DHT22;14230;45.382;10.998;2022-12-18T16:04:56;6.50;99.90
26583;DHT22;14230;45.382;10.998;2022-12-18T16:07:25;6.40;99.90
26583;DHT22;14230;45.382;10.998;2022-12-18T16:09:56;6.30;99.90
26583;DHT22;14230;45.382;10.998;2022-12-18T16:12:28;6.30;99.90
26583;DHT22;14230;45.382;10.998;2022-12-18T16:14:56;6.20;99.90
26583;DHT22;14230;45.382;10.998;2022-12-18T16:17:24;6.20;99.90
26583;DHT22;14230;45.382;10.998;2022-12-18T16:19:52;6.10;99.90
26583;DHT22;14230;45.382;10.998;2022-12-18T16:22:23;6.00;99.90
26583;DHT22;14230;45.382;10.998;2022-12-18T16:24:54;6.00;99.90
26583;DHT22;14230;45.382;10.998;2022-12-18T16:27:22;5.90;99.90
26583;DHT22;14230;45.382;10.998;2022-12-18T16:29:50;5.80;99.90
26583;DHT22;14230;45.382;10.998;2022-12-18T16:32:20;5.90;99.90
26583;DHT22;14230;45.382;10.998;2022-12-18T16:34:48;5.80;99.90
26583;DHT22;14230;45.382;10.998;2022-12-18T16:37:16;5.70;99.90
26583;DHT22;14230;45.382;10.998;2022-12-18T16:39:43;5.70;99.90
26583;DHT22;14230;45.382;10.998;2022-12-18T16:42:17;5.60;99.90
26583;DHT22;14230;45.382;10.998;2022-12-18T16:44:48;5.50;99.90
26583;DHT22;14230;45.382;10.998;2022-12-18T16:47:17;5.50;99.90
26583;DHT22;14230;45.382;10.998;2022-12-18T16:49:45;5.50;99.90
26583;DHT22;14230;45.382;10.998;2022-12-18T16:52:13;5.40;99.90
26583;DHT22;14230;45.382;10.998;2022-12-18T16:54:41;5.40;99.90
26583;DHT22;14230;45.382;10.998;2022-12-18T16:57:12;5.30;99.90
26583;DHT22;14230;45.382;10.998;2022-12-18T16:59:40;5.30;99.90
26583;DHT22;14230;45.382;10.998;2022-12-18T17:02:23;5.20;99.90
26583;DHT22;14230;45.382;10.998;2022-12-18T17:04:56;5.20;99.90
26583;DHT22;14230;45.382;10.998;2022-12-18T17:07:25;5.10;99.90
26583;DHT22;14230;45.382;10.998;2022-12-18T17:09:53;5.10;99.90
26583;DHT22;14230;45.382;10.998;2022-12-18T17:12:22;5.10;99.90
26583;DHT22;14230;45.382;10.998;2022-12-18T17:14:49;5.00;99.90
26583;DHT22;14230;45.382;10.998;2022-12-18T17:17:17;5.00;99.90
26583;DHT22;14230;45.382;10.998;2022-12-18T17:19:48;4.90;99.90
26583;DHT22;14230;45.382;10.998;2022-12-18T17:22:16;4.90;99.90
26583;DHT22;14230;45.382;10.998;2022-12-18T17:24:44;5.00;99.90
26583;DHT22;14230;45.382;10.998;2022-12-18T17:27:12;5.00;99.90
26583;DHT22;14230;45.382;10.998;2022-12-18T17:29:40;4.90;99.90
26583;DHT22;14230;45.382;10.998;2022-12-18T17:32:15;4.90;99.90
26583;DHT22;14230;45.382;10.998;2022-12-18T17:34:43;4.90;99.90
26583;DHT22;14230;45.382;10.998;2022-12-18T17:37:11;4.90;99.90
26583;DHT22;14230;45.382;10.998;2022-12-18T17:39:38;4.80;99.90
26583;DHT22;14230;45.382;10.998;2022-12-18T17:42:06;4.80;99.90
26583;DHT22;14230;45.382;10.998;2022-12-18T17:44:41;4.70;99.90
26583;DHT22;14230;45.382;10.998;2022-12-18T17:47:09;4.70;99.90
26583;DHT22;14230;45.382;10.998;2022-12-18T17:49:38;4.70;99.90
26583;DHT22;14230;45.382;10.998;2022-12-18T17:52:06;4.70;99.90
26583;DHT22;14230;45.382;10.998;2022-12-18T17:54:33;4.70;99.90
26583;DHT22;14230;45.382;10.998;2022-12-18T17:57:04;4.60;99.90
26583;DHT22;14230;45.382;10.998;2022-12-18T17:59:32;4.50;99.90
26583;DHT22;14230;45.382;10.998;2022-12-18T18:01:59;4.40;99.90
26583;DHT22;14230;45.382;10.998;2022-12-18T18:04:27;4.40;99.90
26583;DHT22;14230;45.382;10.998;2022-12-18T18:06:54;4.40;99.90
26583;DHT22;14230;45.382;10.998;2022-12-18T18:09:22;4.40;99.90
26583;DHT22;14230;45.382;10.998;2022-12-18T18:11:50;4.30;99.90
26583;DHT22;14230;45.382;10.998;2022-12-18T18:14:36;4.30;99.90
26583;DHT22;14230;45.382;10.998;2022-12-18T18:17:05;4.30;99.90
26583;DHT22;14230;45.382;10.998;2022-12-18T18:19:33;4.30;99.90
26583;DHT22;14230;45.382;10.998;2022-12-18T18:22:00;4.20;99.90
26583;DHT22;14230;45.382;10.998;2022-12-18T18:24:32;4.20;99.90
26583;DHT22;14230;45.382;10.998;2022-12-18T18:27:03;4.30;99.90
26583;DHT22;14230;45.382;10.998;2022-12-18T18:29:35;4.40;99.90
26583;DHT22;14230;45.382;10.998;2022-12-18T18:32:06;4.40;99.90
26583;DHT22;14230;45.382;10.998;2022-12-18T18:34:34;4.30;99.90
26583;DHT22;14230;45.382;10.998;2022-12-18T18:37:03;4.20;99.90
26583;DHT22;14230;45.382;10.998;2022-12-18T18:39:31;4.20;99.90
26583;DHT22;14230;45.382;10.998;2022-12-18T18:42:00;4.20;99.90
26583;DHT22;14230;45.382;10.998;2022-12-18T18:44:28;4.20;99.90
26583;DHT22;14230;45.382;10.998;2022-12-18T18:46:59;4.10;99.90
26583;DHT22;14230;45.382;10.998;2022-12-18T18:49:30;4.10;99.90
26583;DHT22;14230;45.382;10.998;2022-12-18T18:51:58;4.00;99.90
26583;DHT22;14230;45.382;10.998;2022-12-18T18:54:26;4.00;99.90
26583;DHT22;14230;45.382;10.998;2022-12-18T18:56:54;4.00;99.90
26583;DHT22;14230;45.382;10.998;2022-12-18T18:59:43;3.90;99.90
26583;DHT22;14230;45.382;10.998;2022-12-18T19:02:12;3.90;99.90
26583;DHT22;14230;45.382;10.998;2022-12-18T19:04:41;3.90;99.90
26583;DHT22;14230;45.382;10.998;2022-12-18T19:07:14;3.80;99.90
26583;DHT22;14230;45.382;10.998;2022-12-18T19:09:57;3.90;99.90
26583;DHT22;14230;45.382;10.998;2022-12-18T19:12:31;3.70;99.90
26583;DHT22;14230;45.382;10.998;2022-12-18T19:15:17;3.80;99.90
26583;DHT22;14230;45.382;10.998;2022-12-18T19:17:53;3.80;99.90
26583;DHT22;14230;45.382;10.998;2022-12-18T19:20:23;3.80;99.90
26583;DHT22;14230;45.382;10.998;2022-12-18T19:22:51;3.70;99.90
26583;DHT22;14230;45.382;10.998;2022-12-18T19:25:25;3.60;99.90
26583;DHT22;14230;45.382;10.998;2022-12-18T19:28:08;3.60;99.90
26583;DHT22;14230;45.382;10.998;2022-12-18T19:30:49;3.50;99.90
26583;DHT22;14230;45.382;10.998;2022-12-18T19:33:31;3.50;99.90
26583;DHT22;14230;45.382;10.998;2022-12-18T19:38:46;3.40;99.90
26583;DHT22;14230;45.382;10.998;2022-12-18T19:41:15;3.30;99.90
26583;DHT22;14230;45.382;10.998;2022-12-18T19:43:46;3.30;99.90
26583;DHT22;14230;45.382;10.998;2022-12-18T19:46:17;3.20;99.90
26583;DHT22;14230;45.382;10.998;2022-12-18T19:48:46;3.10;99.90
26583;DHT22;14230;45.382;10.998;2022-12-18T19:51:24;3.00;99.90
26583;DHT22;14230;45.382;10.998;2022-12-18T19:53:53;3.00;99.90
26583;DHT22;14230;45.382;10.998;2022-12-18T19:56:29;2.80;99.90
26583;DHT22;14230;45.382;10.998;2022-12-18T19:58:58;2.80;99.90
26583;DHT22;14230;45.382;10.998;2022-12-18T20:01:27;2.70;99.90
26583;DHT22;14230;45.382;10.998;2022-12-18T20:03:56;2.60;99.90
26583;DHT22;14230;45.382;10.998;2022-12-18T20:06:32;2.50;99.90
26583;DHT22;14230;45.382;10.998;2022-12-18T20:09:04;2.50;99.90
26583;DHT22;14230;45.382;10.998;2022-12-18T20:11:33;2.60;99.90
26583;DHT22;14230;45.382;10.998;2022-12-18T20:14:09;2.60;99.90
26583;DHT22;14230;45.382;10.998;2022-12-18T20:16:43;2.60;99.90
